createdAt,value
2023-01-29T00:00:10.468Z,30.20
2023-01-29T00:02:39.011Z,30.03
2023-01-29T00:05:25.851Z,30.07
2023-01-29T00:07:55.263Z,28.77
2023-01-29T00:10:25.489Z,30.57
2023-01-29T00:12:53.576Z,30.83
2023-01-29T00:15:21.824Z,31.10
2023-01-29T00:17:49.821Z,30.60
2023-01-29T00:20:18.667Z,31.33
2023-01-29T00:22:46.904Z,31.63
2023-01-29T00:25:15.183Z,31.53
2023-01-29T00:27:44.993Z,30.90
2023-01-29T00:30:14.181Z,30.07
2023-01-29T00:32:42.450Z,30.93
2023-01-29T00:35:11.460Z,30.33
2023-01-29T00:37:39.911Z,31.47
2023-01-29T00:40:09.340Z,32.43
2023-01-29T00:42:54.679Z,32.37
2023-01-29T00:45:24.052Z,33.43
2023-01-29T00:47:52.060Z,34.60
2023-01-29T00:50:20.235Z,34.03
2023-01-29T00:52:49.898Z,34.17
2023-01-29T00:55:18.393Z,34.90
2023-01-29T00:57:46.440Z,35.43
2023-01-29T01:00:17.310Z,34.97
2023-01-29T01:03:05.555Z,34.53
2023-01-29T01:05:34.255Z,36.03
2023-01-29T01:08:02.264Z,34.23
2023-01-29T01:10:32.662Z,35.07
2023-01-29T01:13:03.080Z,35.00
2023-01-29T01:15:34.844Z,34.53
2023-01-29T01:18:05.150Z,36.03
2023-01-29T01:20:36.475Z,38.10
2023-01-29T01:23:05.285Z,37.93
2023-01-29T01:25:34.047Z,39.30
2023-01-29T01:28:02.045Z,36.93
2023-01-29T01:30:30.551Z,35.77
2023-01-29T01:32:58.827Z,35.93
2023-01-29T01:35:28.406Z,35.30
2023-01-29T01:37:56.472Z,35.97
2023-01-29T01:40:26.299Z,35.43
2023-01-29T01:42:56.412Z,32.67
2023-01-29T01:45:27.866Z,31.43
2023-01-29T01:48:00.021Z,31.77
2023-01-29T01:50:33.422Z,29.50
2023-01-29T01:53:06.205Z,28.57
2023-01-29T01:55:36.410Z,29.10
2023-01-29T01:58:10.435Z,29.63
2023-01-29T02:00:39.279Z,31.37
2023-01-29T02:03:25.717Z,29.63
2023-01-29T02:06:15.879Z,33.13
2023-01-29T02:09:06.141Z,32.93
2023-01-29T02:11:34.213Z,33.53
2023-01-29T02:14:02.296Z,32.00
2023-01-29T02:16:30.534Z,33.77
2023-01-29T02:18:58.748Z,35.60
2023-01-29T02:22:07.553Z,33.90
2023-01-29T02:25:09.546Z,34.60
2023-01-29T02:28:17.307Z,34.20
2023-01-29T02:30:54.388Z,33.60
2023-01-29T02:33:33.059Z,36.50
2023-01-29T02:36:08.944Z,34.80
2023-01-29T02:38:45.245Z,35.23
2023-01-29T02:41:17.654Z,35.63
2023-01-29T02:43:48.891Z,37.07
2023-01-29T02:46:23.577Z,36.50
2023-01-29T02:48:58.932Z,37.33
2023-01-29T02:51:36.102Z,38.43
2023-01-29T02:54:08.645Z,39.07
2023-01-29T02:56:41.131Z,37.80
2023-01-29T02:59:15.645Z,42.17
2023-01-29T03:01:48.653Z,39.90
2023-01-29T03:04:30.929Z,39.40
2023-01-29T03:07:04.481Z,39.43
2023-01-29T03:09:36.072Z,40.60
2023-01-29T03:12:20.122Z,41.67
2023-01-29T03:15:18.109Z,37.97
2023-01-29T03:17:52.575Z,36.37
2023-01-29T03:20:26.550Z,37.90
2023-01-29T03:23:01.467Z,37.63
2023-01-29T03:25:47.830Z,37.60
2023-01-29T03:28:36.618Z,37.93
2023-01-29T03:31:26.330Z,36.43
2023-01-29T03:34:01.178Z,36.50
2023-01-29T03:36:38.098Z,34.57
2023-01-29T03:39:07.552Z,35.70
2023-01-29T03:41:39.542Z,35.77
2023-01-29T03:44:15.504Z,35.83
2023-01-29T03:46:51.906Z,34.97
2023-01-29T03:49:29.675Z,34.30
2023-01-29T03:52:04.041Z,35.43
2023-01-29T03:54:41.660Z,34.80
2023-01-29T03:57:18.138Z,35.63
2023-01-29T03:59:56.638Z,35.03
2023-01-29T04:02:30.900Z,33.37
2023-01-29T04:05:00.919Z,32.33
2023-01-29T04:07:33.539Z,33.73
2023-01-29T04:10:06.664Z,33.10
2023-01-29T04:12:39.553Z,32.70
2023-01-29T04:15:11.912Z,31.47
2023-01-29T04:17:44.192Z,30.90
2023-01-29T04:20:13.690Z,34.27
2023-01-29T04:22:46.137Z,32.53
2023-01-29T04:25:17.728Z,33.50
2023-01-29T04:27:57.183Z,31.27
2023-01-29T04:30:33.503Z,31.97
2023-01-29T04:33:21.741Z,31.77
2023-01-29T04:36:17.500Z,31.13
2023-01-29T04:38:58.894Z,32.17
2023-01-29T04:41:34.196Z,30.00
2023-01-29T04:44:08.702Z,30.47
2023-01-29T04:46:48.024Z,30.13
2023-01-29T04:49:28.817Z,30.50
2023-01-29T04:52:03.251Z,30.17
2023-01-29T04:54:41.331Z,29.47
2023-01-29T04:57:15.756Z,31.03
2023-01-29T04:59:49.654Z,29.90
2023-01-29T05:02:20.199Z,30.63
2023-01-29T05:04:51.173Z,30.83
2023-01-29T05:07:21.044Z,31.73
2023-01-29T05:09:49.966Z,32.07
2023-01-29T05:12:19.380Z,32.60
2023-01-29T05:14:49.677Z,32.43
2023-01-29T05:17:21.259Z,32.63
2023-01-29T05:19:50.768Z,36.27
2023-01-29T05:22:23.334Z,35.50
2023-01-29T05:24:51.494Z,34.50
2023-01-29T05:27:40.399Z,35.93
2023-01-29T05:30:10.353Z,35.53
2023-01-29T05:32:40.060Z,36.00
2023-01-29T05:35:10.203Z,35.53
2023-01-29T05:37:38.626Z,33.07
2023-01-29T05:40:08.877Z,33.13
2023-01-29T05:42:38.122Z,33.77
2023-01-29T05:45:07.017Z,32.00
2023-01-29T05:47:35.254Z,34.17
2023-01-29T05:50:03.544Z,32.83
2023-01-29T05:52:33.395Z,30.37
2023-01-29T05:55:01.421Z,30.83
2023-01-29T05:57:29.638Z,31.20
2023-01-29T05:59:57.731Z,28.63
2023-01-29T06:02:25.913Z,30.37
2023-01-29T06:04:53.917Z,29.83
2023-01-29T06:07:22.058Z,29.47
2023-01-29T06:09:51.641Z,29.67
2023-01-29T06:12:19.857Z,29.23
2023-01-29T06:14:47.998Z,29.63
2023-01-29T06:17:16.184Z,28.30
2023-01-29T06:19:44.378Z,29.87
2023-01-29T06:22:12.847Z,31.30
2023-01-29T06:24:40.908Z,28.70
2023-01-29T06:27:10.654Z,28.07
2023-01-29T06:29:38.699Z,28.03
2023-01-29T06:32:07.581Z,26.17
2023-01-29T06:34:35.698Z,30.63
2023-01-29T06:37:03.907Z,28.40
2023-01-29T06:39:32.146Z,28.90
2023-01-29T06:42:00.361Z,28.93
2023-01-29T06:44:29.950Z,31.27
2023-01-29T06:46:58.196Z,26.97
2023-01-29T06:49:26.338Z,27.97
2023-01-29T06:51:54.927Z,27.47
2023-01-29T06:54:23.136Z,30.63
2023-01-29T06:56:51.499Z,28.13
2023-01-29T06:59:19.635Z,28.13
2023-01-29T07:01:49.717Z,28.80
2023-01-29T07:04:17.994Z,29.53
2023-01-29T07:06:51.290Z,29.17
2023-01-29T07:09:19.475Z,28.63
2023-01-29T07:11:48.105Z,27.87
2023-01-29T07:14:16.218Z,27.07
2023-01-29T07:16:44.243Z,27.03
2023-01-29T07:19:13.661Z,26.73
2023-01-29T07:21:42.067Z,27.27
2023-01-29T07:24:10.505Z,26.23
2023-01-29T07:26:38.889Z,28.07
2023-01-29T07:29:06.977Z,27.23
2023-01-29T07:31:35.566Z,26.77
2023-01-29T07:34:03.877Z,29.67
2023-01-29T07:36:33.604Z,28.87
2023-01-29T07:39:01.702Z,28.93
2023-01-29T07:41:29.747Z,27.53
2023-01-29T07:43:57.904Z,27.60
2023-01-29T07:46:26.136Z,30.23
2023-01-29T07:48:54.136Z,29.20
2023-01-29T07:51:22.596Z,29.37
2023-01-29T07:53:52.190Z,30.37
2023-01-29T07:56:20.681Z,29.67
2023-01-29T07:58:48.773Z,28.07
2023-01-29T08:01:17.095Z,28.13
2023-01-29T08:03:45.421Z,29.60
2023-01-29T08:06:13.779Z,29.00
2023-01-29T08:08:41.920Z,29.07
2023-01-29T08:11:12.283Z,30.63
2023-01-29T08:13:40.915Z,29.93
2023-01-29T08:16:09.766Z,30.80
2023-01-29T08:18:38.519Z,28.83
2023-01-29T08:21:06.965Z,31.00
2023-01-29T08:23:35.033Z,30.73
2023-01-29T08:26:04.658Z,31.17
2023-01-29T08:28:35.323Z,31.33
2023-01-29T08:31:03.811Z,34.70
2023-01-29T08:33:39.629Z,30.57
2023-01-29T08:36:09.307Z,29.83
2023-01-29T08:38:38.003Z,31.93
2023-01-29T08:41:06.893Z,30.93
2023-01-29T08:43:38.832Z,35.53
2023-01-29T08:46:08.272Z,31.57
2023-01-29T08:48:36.769Z,35.13
2023-01-29T08:51:05.241Z,32.80
2023-01-29T08:53:33.865Z,35.67
2023-01-29T08:56:02.023Z,33.73
2023-01-29T08:58:30.523Z,32.43
2023-01-29T09:01:07.608Z,34.00
2023-01-29T09:03:40.977Z,34.50
2023-01-29T09:06:10.965Z,35.87
2023-01-29T09:08:39.334Z,34.13
2023-01-29T09:11:07.930Z,33.57
2023-01-29T09:13:36.063Z,32.60
2023-01-29T09:16:06.415Z,35.03
2023-01-29T09:18:37.945Z,35.40
2023-01-29T09:21:07.004Z,35.87
2023-01-29T09:23:35.047Z,36.20
2023-01-29T09:26:04.867Z,39.03
2023-01-29T09:28:33.257Z,38.67
2023-01-29T09:31:02.694Z,38.20
2023-01-29T09:33:32.870Z,37.63
2023-01-29T09:36:01.515Z,37.50
2023-01-29T09:38:30.610Z,37.53
2023-01-29T09:41:06.301Z,36.80
2023-01-29T09:43:44.079Z,35.50
2023-01-29T09:46:19.232Z,36.73
2023-01-29T09:48:59.816Z,34.53
2023-01-29T09:51:33.820Z,40.13
2023-01-29T09:54:12.843Z,36.30
2023-01-29T09:56:42.106Z,35.60
2023-01-29T09:59:11.790Z,35.83
2023-01-29T10:01:48.334Z,35.07
2023-01-29T10:04:47.200Z,37.10
2023-01-29T10:07:32.809Z,37.43
2023-01-29T10:10:22.975Z,36.33
2023-01-29T10:13:03.839Z,36.80
2023-01-29T10:15:52.949Z,36.30
2023-01-29T10:18:47.379Z,36.93
2023-01-29T10:21:34.048Z,37.53
2023-01-29T10:24:12.599Z,39.80
2023-01-29T10:26:41.997Z,39.67
2023-01-29T10:29:16.122Z,38.80
2023-01-29T10:31:45.881Z,38.93
2023-01-29T10:34:20.631Z,39.23
2023-01-29T10:36:50.937Z,39.13
2023-01-29T10:39:20.577Z,39.73
2023-01-29T10:42:05.860Z,40.77
2023-01-29T10:44:51.248Z,41.53
2023-01-29T10:47:47.568Z,41.43
2023-01-29T10:50:25.325Z,39.90
2023-01-29T10:53:12.349Z,42.53
2023-01-29T10:55:51.084Z,43.07
2023-01-29T10:58:29.762Z,42.47
2023-01-29T11:00:58.128Z,44.20
2023-01-29T11:03:29.038Z,43.43
2023-01-29T11:06:05.315Z,41.60
2023-01-29T11:08:43.635Z,42.83
2023-01-29T11:11:15.448Z,43.13
2023-01-29T11:13:48.286Z,44.67
2023-01-29T11:16:16.637Z,41.00
2023-01-29T11:18:56.930Z,44.03
2023-01-29T11:21:26.410Z,44.13
2023-01-29T11:24:12.671Z,44.57
2023-01-29T11:26:43.239Z,43.20
2023-01-29T11:29:32.075Z,46.27
2023-01-29T11:32:02.215Z,43.80
2023-01-29T11:34:32.463Z,44.23
2023-01-29T11:37:01.873Z,44.87
2023-01-29T11:39:34.340Z,44.67
2023-01-29T11:42:04.150Z,43.80
2023-01-29T11:44:34.600Z,45.77
2023-01-29T11:47:16.398Z,45.03
2023-01-29T11:49:48.502Z,45.50
2023-01-29T11:52:19.240Z,43.90
2023-01-29T11:54:54.669Z,45.03
2023-01-29T11:57:32.160Z,46.10
2023-01-29T12:00:04.465Z,46.20
2023-01-29T12:02:37.388Z,43.67
2023-01-29T12:05:16.971Z,44.87
2023-01-29T12:07:49.222Z,43.10
2023-01-29T12:10:38.329Z,44.60
2023-01-29T12:13:29.758Z,43.63
2023-01-29T12:16:13.957Z,42.43
2023-01-29T12:18:44.946Z,42.57
2023-01-29T12:21:19.498Z,43.87
2023-01-29T12:23:55.276Z,42.13
2023-01-29T12:26:31.435Z,41.50
2023-01-29T12:29:15.526Z,42.37
2023-01-29T12:31:50.532Z,42.13
2023-01-29T12:34:26.020Z,39.87
2023-01-29T12:37:01.596Z,40.43
2023-01-29T12:50:03.141Z,35.80
2023-01-29T12:52:40.846Z,36.23
2023-01-29T12:55:17.222Z,36.37
2023-01-29T12:57:51.947Z,35.47
2023-01-29T13:00:24.292Z,36.43
2023-01-29T13:03:00.109Z,38.03
2023-01-29T13:05:35.588Z,37.60
2023-01-29T13:08:08.290Z,37.87
2023-01-29T13:10:42.305Z,36.77
2023-01-29T13:13:17.732Z,37.10
2023-01-29T13:15:46.437Z,38.60
2023-01-29T13:18:35.099Z,36.53
2023-01-29T13:21:06.119Z,36.63
2023-01-29T13:23:39.180Z,35.57
2023-01-29T13:26:07.910Z,37.47
2023-01-29T13:28:36.260Z,35.87
2023-01-29T13:31:28.331Z,34.47
2023-01-29T13:34:05.954Z,35.73
2023-01-29T13:36:43.675Z,33.43
2023-01-29T13:39:21.441Z,34.80
2023-01-29T13:41:50.922Z,35.37
2023-01-29T13:44:25.617Z,34.53
2023-01-29T13:46:57.756Z,35.20
2023-01-29T13:49:36.864Z,36.13
2023-01-29T13:52:22.670Z,34.20
2023-01-29T13:55:00.507Z,35.30
2023-01-29T13:57:49.901Z,34.80
2023-01-29T14:01:01.669Z,34.47
2023-01-29T14:04:04.930Z,34.40
2023-01-29T14:06:49.215Z,35.33
2023-01-29T14:09:56.556Z,35.60
2023-01-29T14:12:55.543Z,38.13
2023-01-29T14:15:29.558Z,36.27
2023-01-29T14:18:05.725Z,37.77
2023-01-29T14:20:47.040Z,37.57
2023-01-29T14:23:40.443Z,38.20
2023-01-29T14:26:25.245Z,37.73
2023-01-29T14:28:57.493Z,37.87
2023-01-29T14:31:32.355Z,37.90
2023-01-29T14:34:04.573Z,38.37
2023-01-29T14:36:41.516Z,41.43
2023-01-29T14:39:23.316Z,40.07
2023-01-29T14:41:53.803Z,41.73
2023-01-29T14:45:07.394Z,41.53
2023-01-29T14:47:57.470Z,41.57
2023-01-29T14:51:03.831Z,42.87
2023-01-29T14:53:44.840Z,43.57
2023-01-29T14:56:16.906Z,45.10
2023-01-29T14:58:50.226Z,43.17
2023-01-29T15:01:26.271Z,43.07
2023-01-29T15:03:59.630Z,44.27
2023-01-29T15:06:33.443Z,46.27
2023-01-29T15:09:12.139Z,46.07
2023-01-29T15:11:49.689Z,44.17
2023-01-29T15:14:33.366Z,45.30
2023-01-29T15:17:08.805Z,46.47
2023-01-29T15:19:40.450Z,46.07
2023-01-29T15:22:11.905Z,45.67
2023-01-29T15:24:41.215Z,46.73
2023-01-29T15:27:14.900Z,47.57
2023-01-29T15:29:46.248Z,46.80
2023-01-29T15:32:20.403Z,46.13
2023-01-29T15:34:49.416Z,46.17
2023-01-29T15:37:31.736Z,48.07
2023-01-29T15:40:01.044Z,47.07
2023-01-29T15:42:30.939Z,46.20
2023-01-29T15:45:00.880Z,46.93
2023-01-29T15:47:32.928Z,45.77
2023-01-29T15:50:01.856Z,47.00
2023-01-29T15:52:35.357Z,45.93
2023-01-29T15:55:08.706Z,45.03
2023-01-29T15:57:41.605Z,44.60
2023-01-29T16:00:23.187Z,46.13
2023-01-29T16:02:51.571Z,45.37
2023-01-29T16:05:22.999Z,46.43
2023-01-29T16:07:52.276Z,46.60
2023-01-29T16:10:22.829Z,45.97
2023-01-29T16:12:52.516Z,45.93
2023-01-29T16:15:33.737Z,46.13
2023-01-29T16:18:22.577Z,46.10
2023-01-29T16:20:54.018Z,46.07
2023-01-29T16:23:27.545Z,47.07
2023-01-29T16:25:57.770Z,44.73
2023-01-29T16:28:26.099Z,45.57
2023-01-29T16:31:00.684Z,44.60
2023-01-29T16:33:36.373Z,44.33
2023-01-29T16:36:06.212Z,45.17
2023-01-29T16:38:36.606Z,44.70
2023-01-29T16:41:15.348Z,45.30
2023-01-29T16:43:52.965Z,43.63
2023-01-29T16:46:27.274Z,44.50
2023-01-29T16:48:55.948Z,43.30
2023-01-29T16:51:27.839Z,43.93
2023-01-29T16:54:01.108Z,46.47
2023-01-29T16:56:32.801Z,45.73
2023-01-29T16:59:03.252Z,44.70
2023-01-29T17:01:35.785Z,45.23
2023-01-29T17:04:11.520Z,45.33
2023-01-29T17:06:41.500Z,45.80
2023-01-29T17:09:09.901Z,47.07
2023-01-29T17:11:39.945Z,47.63
2023-01-29T17:14:09.688Z,47.60
2023-01-29T17:16:50.949Z,46.00
2023-01-29T17:19:22.593Z,46.03
2023-01-29T17:21:53.844Z,46.80
2023-01-29T17:24:21.859Z,46.73
2023-01-29T17:26:50.439Z,46.27
2023-01-29T17:29:21.642Z,47.63
2023-01-29T17:31:51.216Z,46.23
2023-01-29T17:34:19.165Z,47.87
2023-01-29T17:36:47.500Z,46.80
2023-01-29T17:39:19.129Z,47.33
2023-01-29T17:41:50.622Z,46.10
2023-01-29T17:44:18.966Z,47.40
2023-01-29T17:46:47.492Z,49.67
2023-01-29T17:49:24.379Z,46.63
2023-01-29T17:51:53.070Z,47.60
2023-01-29T17:54:22.123Z,48.93
2023-01-29T17:56:50.937Z,47.87
2023-01-29T17:59:20.559Z,48.87
2023-01-29T18:01:49.921Z,47.87
2023-01-29T18:04:19.596Z,47.97
2023-01-29T18:06:50.094Z,47.80
2023-01-29T18:09:26.124Z,48.23
2023-01-29T18:11:54.932Z,48.50
2023-01-29T18:14:22.988Z,47.53
2023-01-29T18:16:51.074Z,48.33
2023-01-29T18:19:27.541Z,49.00
2023-01-29T18:21:56.410Z,46.97
2023-01-29T18:24:26.800Z,48.87
2023-01-29T18:26:55.232Z,49.03
2023-01-29T18:29:29.785Z,48.90
2023-01-29T18:31:58.808Z,47.37
2023-01-29T18:34:29.435Z,48.43
2023-01-29T18:36:59.246Z,47.07
2023-01-29T18:39:27.788Z,46.53
2023-01-29T18:41:56.306Z,45.93
2023-01-29T18:44:24.897Z,48.03
2023-01-29T18:46:54.605Z,46.33
2023-01-29T18:49:22.970Z,46.60
2023-01-29T18:51:53.400Z,45.93
2023-01-29T18:54:21.786Z,45.50
2023-01-29T18:57:09.336Z,45.60
2023-01-29T18:59:39.586Z,47.77
2023-01-29T19:02:08.127Z,46.57
2023-01-29T19:04:36.327Z,46.93
2023-01-29T19:07:06.094Z,45.70
2023-01-29T19:09:34.476Z,46.93
2023-01-29T19:12:02.896Z,48.03
2023-01-29T19:14:31.569Z,48.03
2023-01-29T19:17:01.688Z,46.73
2023-01-29T19:19:30.649Z,46.40
2023-01-29T19:21:58.930Z,46.77
2023-01-29T19:24:29.179Z,46.73
2023-01-29T19:26:58.228Z,48.27
2023-01-29T19:29:26.769Z,46.27
2023-01-29T19:31:55.122Z,46.27
2023-01-29T19:34:30.686Z,47.00
2023-01-29T19:36:59.217Z,46.37
2023-01-29T19:39:33.620Z,46.53
2023-01-29T19:42:01.925Z,45.13
2023-01-29T19:44:30.151Z,46.23
2023-01-29T19:46:58.392Z,46.77
2023-01-29T19:49:27.483Z,45.40
2023-01-29T19:51:59.063Z,47.30
2023-01-29T19:54:29.638Z,47.83
2023-01-29T19:56:58.142Z,46.53
2023-01-29T19:59:26.429Z,47.77
2023-01-29T20:01:54.712Z,47.00
2023-01-29T20:04:22.748Z,47.40
2023-01-29T20:06:50.640Z,48.00
2023-01-29T20:09:18.820Z,46.93
2023-01-29T20:11:48.491Z,46.00
2023-01-29T20:14:17.250Z,45.80
2023-01-29T20:16:45.505Z,46.90
2023-01-29T20:19:15.189Z,45.03
2023-01-29T20:21:45.449Z,45.53
2023-01-29T20:24:14.498Z,44.53
2023-01-29T20:26:42.651Z,43.57
2023-01-29T20:29:12.403Z,44.50
2023-01-29T20:31:40.641Z,42.97
2023-01-29T20:34:08.631Z,44.80
2023-01-29T20:36:36.761Z,46.47
2023-01-29T20:39:05.242Z,46.37
2023-01-29T20:41:33.416Z,44.93
2023-01-29T20:44:01.414Z,46.60
2023-01-29T20:46:30.989Z,45.47
2023-01-29T20:48:59.137Z,46.37
2023-01-29T20:51:27.123Z,42.73
2023-01-29T20:53:55.608Z,46.23
2023-01-29T20:56:24.609Z,42.30
2023-01-29T20:59:03.699Z,41.57
2023-01-29T21:01:38.042Z,40.00
2023-01-29T21:04:06.267Z,40.77
2023-01-29T21:06:34.485Z,38.70
2023-01-29T21:09:02.542Z,39.63
2023-01-29T21:11:31.691Z,38.80
2023-01-29T21:13:59.796Z,43.70
2023-01-29T21:16:27.968Z,38.97
2023-01-29T21:19:01.137Z,38.43
2023-01-29T21:21:29.295Z,37.60
2023-01-29T21:23:58.295Z,39.70
2023-01-29T21:26:26.496Z,42.73
2023-01-29T21:28:54.475Z,37.37
2023-01-29T21:31:22.727Z,37.80
2023-01-29T21:33:50.873Z,36.33
2023-01-29T21:36:20.432Z,36.93
2023-01-29T21:38:48.869Z,36.07
2023-01-29T21:41:16.938Z,35.87
2023-01-29T21:43:45.498Z,34.77
2023-01-29T21:46:13.504Z,35.13
2023-01-29T21:48:41.976Z,37.23
2023-01-29T21:51:10.035Z,34.17
2023-01-29T21:53:39.704Z,33.97
2023-01-29T21:56:08.183Z,36.50
2023-01-29T21:58:36.129Z,39.95
2023-01-29T22:01:18.480Z,42.13
2023-01-29T22:03:52.006Z,38.90
2023-01-29T22:06:20.224Z,38.57
2023-01-29T22:08:51.556Z,35.93
2023-01-29T22:11:19.674Z,33.97
2023-01-29T22:13:47.993Z,33.60
2023-01-29T22:16:16.231Z,33.23
2023-01-29T22:18:44.490Z,34.83
2023-01-29T22:21:12.884Z,34.77
2023-01-29T22:23:41.134Z,34.77
2023-01-29T22:26:12.193Z,34.63
2023-01-29T22:28:40.218Z,37.53
2023-01-29T22:31:08.393Z,39.70
2023-01-29T22:33:36.833Z,41.42
2023-01-29T22:36:05.653Z,35.53
2023-01-29T22:38:33.653Z,35.47
2023-01-29T22:41:01.983Z,36.78
2023-01-29T22:43:31.702Z,34.28
2023-01-29T22:45:59.757Z,34.63
2023-01-29T22:48:30.672Z,35.25
2023-01-29T22:51:09.990Z,36.42
2023-01-29T22:53:39.371Z,35.88
2023-01-29T22:56:08.605Z,35.50
2023-01-29T22:58:38.741Z,36.20
2023-01-29T23:01:06.742Z,35.42
2023-01-29T23:03:35.172Z,36.03
2023-01-29T23:06:04.037Z,35.42
2023-01-29T23:08:34.323Z,36.00
2023-01-29T23:11:14.670Z,35.92
2023-01-29T23:13:47.265Z,35.85
2023-01-29T23:16:16.753Z,36.50
2023-01-29T23:18:45.692Z,35.13
2023-01-29T23:21:13.676Z,36.25
2023-01-29T23:23:44.050Z,36.38
2023-01-29T23:26:31.568Z,36.00
2023-01-29T23:29:04.852Z,35.47
2023-01-29T23:31:35.840Z,35.42
2023-01-29T23:34:04.169Z,36.97
2023-01-29T23:36:32.889Z,37.78
2023-01-29T23:39:01.006Z,37.40
2023-01-29T23:41:29.157Z,36.38
2023-01-29T23:43:57.396Z,37.45
2023-01-29T23:46:26.977Z,37.47
2023-01-29T23:48:55.077Z,38.03
2023-01-29T23:51:23.225Z,32.40
2023-01-29T23:53:51.452Z,28.20
2023-01-29T23:56:19.558Z,29.60
2023-01-29T23:58:47.730Z,29.50
